Air Navigation Services of Czech Republic
Airport: LKLN Updated:  20.01.2017 20:08:07  UTC
 SPECI LKLN 20.01. 20:01 ...
SPECI LKLN 202001Z AUTO 00000KT 2900 BR NCD M11/M12 Q1033=
 METAR LKLN 20.01. 20:00 ...
METAR LKLN 202000Z AUTO 00000KT 3100 BR NCD M11/M12 Q1033=